createdAt,value
2019-02-28T00:02:33.076Z,9.90
2019-02-28T00:07:38.179Z,10.90
2019-02-28T00:12:45.250Z,9.90
2019-02-28T00:17:50.025Z,9.00
2019-02-28T00:22:54.989Z,9.53
2019-02-28T00:28:00.403Z,9.43
2019-02-28T00:33:05.279Z,9.53
2019-02-28T00:38:09.818Z,9.10
2019-02-28T00:43:14.798Z,8.47
2019-02-28T00:48:21.683Z,8.20
2019-02-28T00:53:26.629Z,8.90
2019-02-28T00:58:31.530Z,9.60
2019-02-28T01:03:36.436Z,9.03
2019-02-28T01:08:41.268Z,9.13
2019-02-28T01:13:46.687Z,8.13
2019-02-28T01:18:51.505Z,9.00
2019-02-28T01:23:56.396Z,8.23
2019-02-28T01:29:02.101Z,9.50
2019-02-28T01:34:08.341Z,8.80
2019-02-28T01:39:13.525Z,8.67
2019-02-28T01:44:18.676Z,8.87
2019-02-28T01:49:25.849Z,9.83
2019-02-28T01:54:30.569Z,10.67
2019-02-28T01:59:35.392Z,10.93
2019-02-28T02:04:40.269Z,9.97
2019-02-28T02:09:46.159Z,9.87
2019-02-28T02:14:52.674Z,10.23
2019-02-28T02:19:58.029Z,9.13
2019-02-28T02:25:04.218Z,10.80
2019-02-28T02:30:18.148Z,11.50
2019-02-28T02:35:23.462Z,12.70
2019-02-28T02:40:28.507Z,13.43
2019-02-28T02:45:33.962Z,12.37
2019-02-28T02:50:38.771Z,12.50
2019-02-28T02:55:43.796Z,11.77
2019-02-28T03:00:51.171Z,12.90
2019-02-28T03:05:55.949Z,11.77
2019-02-28T03:11:00.928Z,12.33
2019-02-28T03:16:05.834Z,11.07
2019-02-28T03:21:15.274Z,12.13
2019-02-28T03:26:17.586Z,11.77
2019-02-28T03:31:22.496Z,12.50
2019-02-28T03:36:27.535Z,11.80
2019-02-28T03:41:32.803Z,13.73
2019-02-28T03:46:37.773Z,13.83
2019-02-28T03:51:42.670Z,14.27
2019-02-28T03:56:52.868Z,12.40
2019-02-28T04:01:54.954Z,12.77
2019-02-28T04:06:59.867Z,13.23
2019-02-28T04:12:08.757Z,11.80
2019-02-28T04:17:11.863Z,13.57
2019-02-28T04:22:19.482Z,13.43
2019-02-28T04:27:23.410Z,12.87
2019-02-28T04:32:28.339Z,14.67
2019-02-28T04:37:33.250Z,16.30
2019-02-28T04:42:38.215Z,16.50
2019-02-28T04:47:43.274Z,16.50
2019-02-28T04:52:48.357Z,14.40
2019-02-28T04:57:53.603Z,15.10
2019-02-28T05:02:58.620Z,15.83
2019-02-28T05:08:05.546Z,14.33
2019-02-28T05:13:11.463Z,13.93
2019-02-28T05:18:16.877Z,14.43
2019-02-28T05:23:22.298Z,15.20
2019-02-28T05:28:27.958Z,14.27
2019-02-28T05:33:33.238Z,13.40
2019-02-28T05:38:38.093Z,13.60
2019-02-28T05:43:43.277Z,15.23
2019-02-28T05:48:48.497Z,13.30
2019-02-28T05:53:53.380Z,12.63
2019-02-28T05:58:58.817Z,13.07
2019-02-28T06:04:04.332Z,11.83
2019-02-28T06:09:13.693Z,11.37
2019-02-28T06:14:17.243Z,13.10
2019-02-28T06:19:22.269Z,12.47
2019-02-28T06:24:27.674Z,11.00
2019-02-28T06:29:32.929Z,11.30
2019-02-28T06:34:39.422Z,11.00
2019-02-28T06:39:44.666Z,12.17
2019-02-28T06:44:50.041Z,14.07
2019-02-28T06:49:54.929Z,12.37
2019-02-28T06:54:59.849Z,11.27
2019-02-28T07:00:05.968Z,10.33
2019-02-28T07:05:11.216Z,11.43
2019-02-28T07:10:16.358Z,10.33
2019-02-28T07:15:24.830Z,11.07
2019-02-28T07:20:28.874Z,11.77
2019-02-28T07:25:34.337Z,13.10
2019-02-28T07:30:39.251Z,11.77
2019-02-28T07:35:44.193Z,11.63
2019-02-28T07:40:49.694Z,12.90
2019-02-28T07:45:55.462Z,12.47
2019-02-28T07:51:00.761Z,12.80
2019-02-28T07:56:07.035Z,12.63
2019-02-28T08:01:12.577Z,13.27
2019-02-28T08:06:17.490Z,12.43
2019-02-28T08:11:22.590Z,13.00
2019-02-28T08:16:30.697Z,12.93
2019-02-28T08:21:34.714Z,14.40
2019-02-28T08:26:39.885Z,12.03
2019-02-28T08:31:45.003Z,12.57
2019-02-28T08:36:49.906Z,12.07
2019-02-28T08:42:03.055Z,12.00
2019-02-28T08:47:01.587Z,11.70
2019-02-28T08:52:06.903Z,12.50
2019-02-28T08:57:13.002Z,14.33
2019-02-28T09:02:19.060Z,14.50
2019-02-28T09:07:24.473Z,14.37
2019-02-28T09:12:29.902Z,14.80
2019-02-28T09:17:37.813Z,15.67
2019-02-28T09:22:43.277Z,16.20
2019-02-28T09:27:48.540Z,14.93
2019-02-28T09:32:53.483Z,16.50
2019-02-28T09:38:00.387Z,11.77
2019-02-28T09:43:06.035Z,14.83
2019-02-28T09:48:11.394Z,13.30
2019-02-28T09:53:16.790Z,12.70
2019-02-28T09:58:22.146Z,14.93
2019-02-28T10:03:27.522Z,13.77
2019-02-28T10:08:33.561Z,13.73
2019-02-28T10:13:39.638Z,13.80
2019-02-28T10:18:44.594Z,14.80
2019-02-28T10:23:49.681Z,13.70
2019-02-28T10:28:54.860Z,18.37
2019-02-28T10:33:59.764Z,16.10
2019-02-28T10:39:08.902Z,17.27
2019-02-28T10:44:13.042Z,17.17
2019-02-28T10:49:21.009Z,16.33
2019-02-28T10:54:25.173Z,16.90
2019-02-28T10:59:30.358Z,14.57
2019-02-28T11:04:35.396Z,16.80
2019-02-28T11:09:42.066Z,16.10
2019-02-28T11:14:47.377Z,15.73
2019-02-28T11:19:52.926Z,16.83
2019-02-28T11:25:01.033Z,18.73
2019-02-28T11:30:07.442Z,19.17
2019-02-28T11:35:11.997Z,17.93
2019-02-28T11:40:19.013Z,18.43
2019-02-28T11:45:25.703Z,22.07
2019-02-28T11:50:31.200Z,26.47
2019-02-28T11:55:36.091Z,25.40
2019-02-28T12:00:41.376Z,25.37
2019-02-28T12:05:50.041Z,25.17
2019-02-28T12:10:53.153Z,23.80
2019-02-28T12:15:58.486Z,20.43
2019-02-28T12:21:04.931Z,22.10
2019-02-28T12:26:10.190Z,19.37
2019-02-28T12:31:15.191Z,17.27
2019-02-28T12:36:20.808Z,19.40
2019-02-28T12:41:26.311Z,18.83
2019-02-28T12:46:31.901Z,15.90
2019-02-28T12:51:39.723Z,16.30
2019-02-28T12:56:45.172Z,14.97
2019-02-28T13:01:51.742Z,15.00
2019-02-28T13:06:58.879Z,14.87
2019-02-28T13:12:03.254Z,13.70
2019-02-28T13:17:08.358Z,12.40
2019-02-28T13:22:13.377Z,12.60
2019-02-28T13:27:18.497Z,11.07
2019-02-28T13:32:23.683Z,10.30
2019-02-28T13:37:28.939Z,8.50
2019-02-28T13:42:36.361Z,8.97
2019-02-28T13:47:42.030Z,9.93
2019-02-28T13:52:47.322Z,10.43
2019-02-28T13:57:52.399Z,9.03
2019-02-28T14:02:59.170Z,8.73
2019-02-28T14:08:09.554Z,7.73
2019-02-28T14:13:11.916Z,7.10
2019-02-28T14:18:17.288Z,6.47
2019-02-28T14:23:22.385Z,6.77
2019-02-28T14:28:27.537Z,6.50
2019-02-28T14:33:32.472Z,6.30
2019-02-28T14:38:37.842Z,6.37
2019-02-28T14:43:43.199Z,5.50
2019-02-28T14:48:48.136Z,5.57
2019-02-28T14:53:53.513Z,6.13
2019-02-28T14:58:58.537Z,6.03
2019-02-28T15:04:03.492Z,5.67
2019-02-28T15:09:15.745Z,5.23
2019-02-28T15:14:20.898Z,4.77
2019-02-28T15:19:26.143Z,4.37
2019-02-28T15:24:31.293Z,4.23
2019-02-28T15:29:36.387Z,3.23
2019-02-28T15:34:42.078Z,2.80
2019-02-28T15:39:49.841Z,2.87
2019-02-28T15:44:54.773Z,2.63
2019-02-28T15:49:59.625Z,2.73
2019-02-28T15:55:05.047Z,3.00
2019-02-28T16:00:17.182Z,2.70
2019-02-28T16:05:22.958Z,3.03
2019-02-28T16:10:31.969Z,3.33
2019-02-28T16:15:36.990Z,3.70
2019-02-28T16:20:42.224Z,4.07
2019-02-28T16:25:48.172Z,4.57
2019-02-28T16:30:54.204Z,3.73
2019-02-28T16:35:59.005Z,3.80
2019-02-28T16:41:04.377Z,4.73
2019-02-28T16:46:12.439Z,4.83
2019-02-28T16:51:16.567Z,4.80
2019-02-28T16:56:21.519Z,4.57
2019-02-28T17:01:26.721Z,4.77
2019-02-28T17:06:32.638Z,4.00
2019-02-28T17:11:40.101Z,3.93
2019-02-28T17:17:13.334Z,4.80
2019-02-28T17:22:18.421Z,4.97
2019-02-28T17:27:42.799Z,4.70
2019-02-28T17:32:47.721Z,5.27
2019-02-28T17:37:53.365Z,5.40
2019-02-28T17:42:58.378Z,4.50
2019-02-28T17:48:35.210Z,5.27
2019-02-28T17:54:30.781Z,4.73
2019-02-28T18:00:27.422Z,4.67
2019-02-28T18:06:26.062Z,4.90
2019-02-28T18:12:11.439Z,4.83
2019-02-28T18:17:53.318Z,5.27
2019-02-28T18:23:16.548Z,4.83
2019-02-28T18:29:07.874Z,5.43
2019-02-28T18:34:22.075Z,5.13
2019-02-28T18:39:27.043Z,5.60
2019-02-28T18:44:31.920Z,6.13
2019-02-28T18:49:36.940Z,5.40
2019-02-28T18:54:41.841Z,5.47
2019-02-28T18:59:46.804Z,5.00
2019-02-28T19:04:52.327Z,4.83
2019-02-28T19:09:57.297Z,4.93
2019-02-28T19:15:02.136Z,3.80
2019-02-28T19:20:07.411Z,4.07
2019-02-28T19:25:13.395Z,4.77
2019-02-28T19:30:18.454Z,5.13
2019-02-28T19:35:23.945Z,6.67
2019-02-28T19:40:28.945Z,5.47
2019-02-28T19:45:37.336Z,5.53
2019-02-28T19:50:42.374Z,5.80
2019-02-28T19:55:47.575Z,5.23
2019-02-28T20:00:52.481Z,5.23
2019-02-28T20:05:57.650Z,5.57
2019-02-28T20:11:02.884Z,5.03
2019-02-28T20:16:07.996Z,6.50
2019-02-28T20:21:13.177Z,5.17
2019-02-28T20:26:18.416Z,4.40
2019-02-28T20:31:23.844Z,4.97
2019-02-28T20:36:28.754Z,3.80
2019-02-28T20:41:34.199Z,4.40
2019-02-28T20:46:39.441Z,3.43
2019-02-28T20:51:44.689Z,3.37
2019-02-28T20:56:49.936Z,3.30
2019-02-28T21:01:55.310Z,3.63
2019-02-28T21:07:00.737Z,3.63
2019-02-28T21:12:07.919Z,3.60
2019-02-28T21:17:12.885Z,3.80
2019-02-28T21:22:17.865Z,3.33
2019-02-28T21:27:22.832Z,3.37
2019-02-28T21:32:27.658Z,3.13
2019-02-28T21:37:32.885Z,3.13
2019-02-28T21:42:37.876Z,2.70
2019-02-28T21:47:43.395Z,2.70
2019-02-28T21:52:48.448Z,2.60
2019-02-28T21:57:53.787Z,2.03
2019-02-28T22:02:59.037Z,2.10
2019-02-28T22:08:03.954Z,2.00
2019-02-28T22:13:08.860Z,2.10
2019-02-28T22:18:14.004Z,1.60
2019-02-28T22:23:18.918Z,1.80
2019-02-28T22:28:23.826Z,1.60
2019-02-28T22:33:46.901Z,1.50
2019-02-28T22:38:51.864Z,1.50
2019-02-28T22:43:57.020Z,1.63
2019-02-28T22:49:02.872Z,1.47
2019-02-28T22:54:07.713Z,2.00
2019-02-28T22:59:12.502Z,1.40
2019-02-28T23:04:17.726Z,1.70
2019-02-28T23:09:22.681Z,1.50
2019-02-28T23:14:28.136Z,1.90
2019-02-28T23:19:33.415Z,1.60
2019-02-28T23:24:38.851Z,2.03
2019-02-28T23:29:48.708Z,2.33
2019-02-28T23:34:55.349Z,2.30
2019-02-28T23:40:00.764Z,2.23
2019-02-28T23:45:05.681Z,2.13
2019-02-28T23:50:10.581Z,1.83
2019-02-28T23:55:15.965Z,2.30
